Time,TemperatureF,DewpointF,PressureIn,WindDirection,WindDirectionDegrees,WindSpeedMPH,WindSpeedGustMPH,Humidity,HourlyPrecipIn,Conditions,Clouds,dailyrainin,SoftwareType,DateUTC
2013-06-09 00:01:00,59.9,57.3,29.95,SW,231,2.0,5.0,91,0.00,,,0.00,Wunderground v.1.13,2013-06-09 04:01:00,
2013-06-09 00:31:00,59.9,57.3,29.95,SW,231,1.0,1.0,91,0.00,,,0.00,Wunderground v.1.13,2013-06-09 04:31:00,
2013-06-09 01:01:00,59.6,57.3,29.94,SW,231,2.0,5.0,92,0.00,,,0.00,Wunderground v.1.13,2013-06-09 05:01:00,
2013-06-09 01:30:00,59.2,56.9,29.95,SW,231,3.0,5.0,92,0.00,,,0.00,Wunderground v.1.13,2013-06-09 05:30:00,
2013-06-09 02:01:00,58.9,56.6,29.95,SW,229,3.0,3.0,92,0.00,,,0.00,Wunderground v.1.13,2013-06-09 06:01:00,
2013-06-09 02:31:00,58.7,56.1,29.95,SW,229,3.0,5.0,91,0.00,,,0.00,Wunderground v.1.13,2013-06-09 06:31:00,
2013-06-09 03:01:00,58.3,56.0,29.96,SW,217,3.0,5.0,92,0.00,,,0.00,Wunderground v.1.13,2013-06-09 07:01:00,
2013-06-09 03:31:00,58.0,55.7,29.94,SSW,204,3.0,5.0,92,0.00,,,0.00,Wunderground v.1.13,2013-06-09 07:31:00,
2013-06-09 04:00:00,58.0,55.4,29.96,SSW,205,1.0,1.0,91,0.00,,,0.00,Wunderground v.1.13,2013-06-09 08:00:00,
2013-06-09 04:31:00,58.0,55.4,29.97,SSW,206,1.0,1.0,91,0.00,,,0.00,Wunderground v.1.13,2013-06-09 08:31:00,
2013-06-09 05:01:00,57.6,55.0,29.98,SSW,206,2.0,5.0,91,0.00,,,0.00,Wunderground v.1.13,2013-06-09 09:01:00,
2013-06-09 05:31:00,57.6,55.0,29.98,SSW,206,2.0,5.0,91,0.00,,,0.00,Wunderground v.1.13,2013-06-09 09:31:00,
2013-06-09 06:01:00,57.6,55.3,29.99,SSW,206,2.0,5.0,92,0.00,,,0.00,Wunderground v.1.13,2013-06-09 10:01:00,
2013-06-09 06:30:00,58.0,55.7,30.00,SSW,206,2.0,5.0,92,0.00,,,0.00,Wunderground v.1.13,2013-06-09 10:30:00,
2013-06-09 07:01:00,58.3,55.7,30.00,SSW,206,1.0,5.0,91,0.00,,,0.00,Wunderground v.1.13,2013-06-09 11:01:00,
2013-06-09 07:31:00,58.7,55.8,30.01,SSW,207,3.0,5.0,90,0.00,,,0.00,Wunderground v.1.13,2013-06-09 11:31:00,
2013-06-09 08:01:00,59.5,56.3,30.02,SW,217,3.0,3.0,89,0.00,,,0.00,Wunderground v.1.13,2013-06-09 12:01:00,
2013-06-09 08:31:00,60.2,56.3,30.03,WSW,237,4.0,5.0,87,0.00,,,0.00,Wunderground v.1.13,2013-06-09 12:31:00,
2013-06-09 09:01:00,61.2,56.7,30.04,SW,229,4.0,4.0,85,0.00,,,0.00,Wunderground v.1.13,2013-06-09 13:01:00,
2013-06-09 09:31:00,62.4,56.8,30.05,WSW,238,5.0,7.0,82,0.00,,,0.00,Wunderground v.1.13,2013-06-09 13:31:00,
2013-06-09 10:01:00,65.8,57.7,30.04,SSW,207,4.0,5.0,75,0.00,,,0.00,Wunderground v.1.13,2013-06-09 14:01:00,
2013-06-09 10:31:00,67.4,56.1,30.04,SSW,192,6.0,6.0,67,0.00,,,0.00,Wunderground v.1.13,2013-06-09 14:31:00,
2013-06-09 11:01:00,68.9,56.6,30.03,SW,236,6.0,6.0,65,0.00,,,0.00,Wunderground v.1.13,2013-06-09 15:01:00,
2013-06-09 11:31:00,71.1,56.0,30.03,WSW,254,5.0,7.0,59,0.00,,,0.00,Wunderground v.1.13,2013-06-09 15:31:00,
2013-06-09 12:01:00,72.5,55.4,30.03,West,263,4.0,4.0,55,0.00,,,0.00,Wunderground v.1.13,2013-06-09 16:01:00,
2013-06-09 12:31:00,74.0,56.3,30.03,West,262,3.0,5.0,54,0.00,,,0.00,Wunderground v.1.13,2013-06-09 16:31:00,
2013-06-09 13:01:00,74.7,54.8,30.03,SW,229,4.0,4.0,50,0.00,,,0.00,Wunderground v.1.13,2013-06-09 17:01:00,
2013-06-09 13:31:00,75.6,55.1,30.03,WSW,250,4.0,5.0,49,0.00,,,0.00,Wunderground v.1.13,2013-06-09 17:31:00,
2013-06-09 14:01:00,77.0,55.8,30.02,NW,315,3.0,5.0,48,0.00,,,0.00,Wunderground v.1.13,2013-06-09 18:01:00,
2013-06-09 14:31:00,76.3,51.5,30.02,West,260,3.0,3.0,42,0.00,,,0.00,Wunderground v.1.13,2013-06-09 18:31:00,
2013-06-09 15:01:00,77.6,52.7,30.02,NNW,332,3.0,12.0,42,0.00,,,0.00,Wunderground v.1.13,2013-06-09 19:01:00,
2013-06-09 15:31:00,76.5,51.7,30.02,NNW,330,2.0,2.0,42,0.00,,,0.00,Wunderground v.1.13,2013-06-09 19:31:00,
2013-06-09 16:01:00,77.9,49.5,30.02,West,278,1.0,5.0,37,0.00,,,0.00,Wunderground v.1.13,2013-06-09 20:01:00,
2013-06-09 16:31:00,78.8,50.3,30.02,ESE,118,1.0,1.0,37,0.00,,,0.00,Wunderground v.1.13,2013-06-09 20:31:00,
2013-06-09 17:01:00,79.6,50.3,30.02,WSW,254,1.0,5.0,36,0.00,,,0.00,Wunderground v.1.13,2013-06-09 21:01:00,
2013-06-09 17:31:00,78.3,48.4,30.02,WSW,257,1.0,5.0,35,0.00,,,0.00,Wunderground v.1.13,2013-06-09 21:31:00,
2013-06-09 18:01:00,78.6,50.1,30.02,WNW,293,2.0,2.0,37,0.00,,,0.00,Wunderground v.1.13,2013-06-09 22:01:00,
2013-06-09 18:31:00,79.8,48.1,30.02,WNW,293,1.0,1.0,33,0.00,,,0.00,Wunderground v.1.13,2013-06-09 22:31:00,
2013-06-09 19:01:00,77.7,50.1,30.02,WNW,292,0.0,5.0,38,0.00,,,0.00,Wunderground v.1.13,2013-06-09 23:01:00,
2013-06-09 19:31:00,75.6,55.1,30.03,WNW,286,1.0,5.0,49,0.00,,,0.00,Wunderground v.1.13,2013-06-09 23:31:00,
2013-06-09 20:01:00,74.7,58.0,30.04,SW,227,2.0,2.0,56,0.00,,,0.00,Wunderground v.1.13,2013-06-10 00:01:00,
2013-06-09 20:31:00,72.7,58.0,30.05,WSW,240,1.0,5.0,60,0.00,,,0.00,Wunderground v.1.13,2013-06-10 00:31:00,
2013-06-09 21:01:00,70.4,56.8,30.05,WSW,240,1.0,5.0,62,0.00,,,0.00,Wunderground v.1.13,2013-06-10 01:01:00,
2013-06-09 21:31:00,69.1,56.0,30.05,WSW,240,1.0,1.0,63,0.00,,,0.00,Wunderground v.1.13,2013-06-10 01:31:00,
2013-06-09 22:01:00,66.9,55.6,30.07,WSW,240,0.0,5.0,67,0.00,,,0.00,Wunderground v.1.13,2013-06-10 02:01:00,
2013-06-09 22:31:00,66.4,55.5,30.09,WSW,238,2.0,2.0,68,0.00,,,0.00,Wunderground v.1.13,2013-06-10 02:31:00,
2013-06-09 23:01:00,65.5,55.8,30.09,SW,234,1.0,5.0,71,0.00,,,0.00,Wunderground v.1.13,2013-06-10 03:01:00,
2013-06-09 23:31:00,63.4,55.7,30.09,SW,234,0.0,5.0,76,0.00,,,0.00,Wunderground v.1.13,2013-06-10 03:31:00,